createdAt,value
2022-08-17T00:03:13.595Z,7.47
2022-08-17T00:08:18.865Z,8.37
2022-08-17T00:13:28.448Z,8.03
2022-08-17T00:18:57.452Z,8.13
2022-08-17T00:23:54.173Z,8.80
2022-08-17T00:28:56.312Z,8.63
2022-08-17T00:33:58.464Z,7.80
2022-08-17T00:39:00.254Z,8.10
2022-08-17T00:44:04.226Z,9.43
2022-08-17T00:49:06.743Z,8.93
2022-08-17T00:54:23.633Z,9.60
2022-08-17T00:59:30.960Z,10.67
2022-08-17T01:04:33.425Z,10.67
2022-08-17T01:09:35.619Z,9.57
2022-08-17T01:14:37.899Z,10.87
2022-08-17T01:19:40.972Z,9.87
2022-08-17T01:24:45.853Z,11.80
2022-08-17T01:29:51.972Z,11.67
2022-08-17T01:34:54.668Z,11.80
2022-08-17T01:40:12.402Z,12.33
2022-08-17T01:45:30.362Z,12.47
2022-08-17T01:50:34.942Z,12.43
2022-08-17T01:56:07.436Z,12.83
2022-08-17T02:01:10.548Z,13.40
2022-08-17T02:06:28.047Z,10.87
2022-08-17T02:11:30.451Z,10.50
2022-08-17T02:16:37.006Z,11.63
2022-08-17T02:21:41.183Z,11.33
2022-08-17T02:26:43.257Z,11.90
2022-08-17T02:31:45.071Z,12.53
2022-08-17T02:36:46.938Z,12.20
2022-08-17T02:41:48.945Z,11.67
2022-08-17T02:46:50.721Z,11.10
2022-08-17T02:51:52.736Z,12.10
2022-08-17T02:56:54.562Z,12.33
2022-08-17T03:01:56.756Z,12.00
2022-08-17T03:06:58.648Z,11.80
2022-08-17T03:12:09.063Z,11.70
2022-08-17T03:17:17.098Z,11.20
2022-08-17T03:22:37.100Z,13.60
2022-08-17T03:27:40.072Z,12.87
2022-08-17T03:32:46.393Z,11.17
2022-08-17T03:37:48.353Z,12.53
2022-08-17T03:43:06.671Z,12.00
2022-08-17T03:48:27.746Z,12.73
2022-08-17T03:53:47.972Z,11.83
2022-08-17T03:58:50.086Z,12.83
2022-08-17T04:03:51.886Z,12.13
2022-08-17T04:08:53.603Z,10.90
2022-08-17T04:13:56.710Z,11.67
2022-08-17T04:18:58.859Z,11.37
2022-08-17T04:24:01.215Z,11.40
2022-08-17T04:29:02.977Z,11.93
2022-08-17T04:34:05.126Z,11.87
2022-08-17T04:39:06.786Z,11.93
2022-08-17T04:44:08.612Z,10.50
2022-08-17T04:49:11.668Z,11.23
2022-08-17T04:54:19.633Z,11.60
2022-08-17T04:59:22.614Z,14.70
2022-08-17T05:04:34.581Z,16.30
2022-08-17T05:09:36.995Z,14.07
2022-08-17T05:14:39.441Z,13.47
2022-08-17T05:19:41.612Z,11.73
2022-08-17T05:24:53.940Z,11.87
2022-08-17T05:29:57.403Z,11.10
2022-08-17T05:35:00.400Z,11.67
2022-08-17T05:40:02.650Z,12.17
2022-08-17T05:45:05.548Z,11.47
2022-08-17T05:50:09.502Z,11.63
2022-08-17T05:55:28.868Z,11.63
2022-08-17T06:00:50.776Z,10.07
2022-08-17T06:05:52.474Z,11.30
2022-08-17T06:11:20.055Z,12.10
2022-08-17T06:16:34.498Z,12.40
2022-08-17T06:21:39.707Z,11.63
2022-08-17T06:26:44.252Z,11.03
2022-08-17T06:31:46.195Z,11.97
2022-08-17T06:37:18.495Z,10.43
2022-08-17T06:43:04.966Z,9.67
2022-08-17T06:48:15.628Z,9.23
2022-08-17T06:53:25.117Z,9.50
2022-08-17T06:58:31.859Z,7.83
2022-08-17T07:03:37.718Z,8.00
2022-08-17T07:08:42.573Z,7.77
2022-08-17T07:13:51.063Z,7.03
2022-08-17T07:18:54.928Z,7.50
2022-08-17T07:24:29.328Z,7.63
2022-08-17T07:29:37.702Z,5.77
2022-08-17T07:35:11.622Z,7.13
2022-08-17T07:40:21.108Z,6.40
2022-08-17T07:45:41.718Z,5.83
2022-08-17T07:50:49.569Z,7.27
2022-08-17T07:55:53.923Z,6.40
2022-08-17T08:01:09.455Z,5.67
2022-08-17T08:06:24.657Z,5.47
2022-08-17T08:11:38.262Z,5.43
2022-08-17T08:16:59.789Z,6.13
2022-08-17T08:22:10.779Z,6.47
2022-08-17T08:27:34.501Z,5.60
2022-08-17T08:32:47.981Z,5.63
2022-08-17T08:38:01.293Z,4.53
2022-08-17T08:43:22.038Z,4.40
2022-08-17T08:48:56.493Z,5.00
2022-08-17T08:54:31.339Z,4.83
2022-08-17T08:59:51.160Z,5.07
2022-08-17T09:05:17.487Z,4.60
2022-08-17T09:10:26.132Z,5.50
2022-08-17T09:15:35.161Z,4.73
2022-08-17T09:20:51.516Z,4.17
2022-08-17T09:26:10.323Z,4.43
2022-08-17T09:31:19.233Z,4.70
2022-08-17T09:36:28.643Z,4.10
2022-08-17T09:41:37.398Z,4.13
2022-08-17T09:47:10.606Z,4.40
2022-08-17T09:52:22.185Z,4.40
2022-08-17T09:57:31.444Z,4.20
2022-08-17T10:02:40.422Z,3.90
2022-08-17T10:07:55.438Z,3.60
2022-08-17T10:13:32.610Z,4.93
2022-08-17T10:18:47.796Z,4.00
2022-08-17T10:24:31.141Z,4.07
2022-08-17T10:29:49.698Z,4.03
2022-08-17T10:35:14.535Z,4.40
2022-08-17T10:40:31.766Z,3.60
2022-08-17T10:45:37.968Z,3.83
2022-08-17T10:50:58.362Z,3.83
2022-08-17T10:56:11.977Z,3.30
2022-08-17T11:01:13.788Z,3.50
2022-08-17T11:06:33.288Z,4.00
2022-08-17T11:11:47.522Z,4.30
2022-08-17T11:17:07.884Z,4.37
2022-08-17T11:22:16.810Z,4.70
2022-08-17T11:27:35.759Z,4.17
2022-08-17T11:32:47.100Z,5.10
2022-08-17T11:38:05.022Z,5.30
2022-08-17T11:43:31.538Z,4.77
2022-08-17T11:49:16.575Z,5.60
2022-08-17T11:54:34.598Z,5.37
2022-08-17T11:59:36.570Z,4.10
2022-08-17T12:04:38.331Z,3.60
2022-08-17T12:09:44.976Z,4.50
2022-08-17T12:20:37.302Z,5.63
2022-08-17T12:25:51.566Z,5.67
2022-08-17T12:30:54.213Z,6.57
2022-08-17T12:36:05.084Z,5.47
2022-08-17T12:41:27.166Z,5.60
2022-08-17T12:46:33.686Z,5.03
2022-08-17T12:51:35.541Z,7.80
2022-08-17T12:56:37.277Z,5.93
2022-08-17T13:01:41.869Z,4.87
2022-08-17T13:06:59.937Z,5.90
2022-08-17T13:12:02.150Z,5.47
2022-08-17T13:17:09.629Z,4.77
2022-08-17T13:22:14.672Z,4.37
2022-08-17T13:27:20.590Z,4.73
2022-08-17T13:32:33.650Z,4.67
2022-08-17T13:37:36.637Z,4.80
2022-08-17T13:42:53.134Z,4.20
2022-08-17T13:48:21.567Z,6.20
2022-08-17T13:53:35.493Z,6.00
2022-08-17T13:58:56.173Z,5.47
2022-08-17T14:03:59.659Z,5.33
2022-08-17T14:09:03.704Z,5.27
2022-08-17T14:14:05.473Z,5.60
2022-08-17T14:19:10.024Z,40.53
2022-08-17T14:24:31.776Z,8.47
2022-08-17T14:29:34.323Z,5.37
2022-08-17T14:34:36.258Z,5.40
2022-08-17T14:39:38.424Z,6.37
2022-08-17T14:44:40.689Z,4.17
2022-08-17T14:49:42.429Z,3.60
2022-08-17T14:54:45.973Z,3.37
2022-08-17T14:59:54.581Z,4.23
2022-08-17T15:05:02.159Z,3.10
2022-08-17T15:10:04.438Z,4.70
2022-08-17T15:15:08.472Z,4.28
2022-08-17T15:20:14.746Z,4.25
2022-08-17T15:25:17.858Z,4.07
2022-08-17T15:30:20.543Z,4.05
2022-08-17T15:35:28.388Z,3.70
2022-08-17T15:40:30.645Z,3.67
2022-08-17T15:45:36.691Z,4.55
2022-08-17T15:50:38.457Z,3.20
2022-08-17T15:55:40.333Z,3.50
2022-08-17T16:00:49.432Z,3.77
2022-08-17T16:05:56.210Z,3.33
2022-08-17T16:10:59.611Z,3.90
2022-08-17T16:16:01.371Z,3.53
2022-08-17T16:21:26.037Z,4.57
2022-08-17T16:26:29.414Z,4.37
2022-08-17T16:31:31.343Z,5.60
2022-08-17T16:36:33.236Z,5.27
2022-08-17T16:41:45.038Z,6.43
2022-08-17T16:46:48.032Z,6.63
2022-08-17T16:51:50.218Z,7.73
2022-08-17T16:56:52.140Z,9.07
2022-08-17T17:01:53.870Z,8.90
2022-08-17T17:07:00.958Z,10.00
2022-08-17T17:12:05.721Z,11.83
2022-08-17T17:18:07.073Z,12.63
2022-08-17T17:23:16.723Z,12.60
2022-08-17T17:28:48.710Z,12.50
2022-08-17T17:33:56.004Z,13.37
2022-08-17T17:39:05.370Z,14.40
2022-08-17T17:44:12.384Z,13.47
2022-08-17T17:49:18.223Z,12.40
2022-08-17T17:54:29.761Z,12.77
2022-08-17T17:59:56.052Z,12.63
2022-08-17T18:05:03.838Z,12.33
2022-08-17T18:10:30.121Z,14.53
2022-08-17T18:15:40.810Z,14.00
2022-08-17T18:20:53.630Z,16.17
2022-08-17T18:25:58.863Z,18.33
2022-08-17T18:31:20.181Z,17.37
2022-08-17T18:36:30.688Z,19.40
2022-08-17T18:41:50.373Z,18.60
2022-08-17T18:47:15.117Z,18.43
2022-08-17T18:52:24.778Z,18.47
2022-08-17T18:57:47.869Z,18.97
2022-08-17T19:02:52.234Z,20.70
2022-08-17T19:07:54.682Z,18.67
2022-08-17T19:13:12.680Z,18.43
2022-08-17T19:18:19.923Z,20.73
2022-08-17T19:23:29.422Z,20.83
2022-08-17T19:28:41.614Z,21.43
2022-08-17T19:33:43.650Z,19.93
2022-08-17T19:39:04.894Z,23.13
2022-08-17T19:44:12.500Z,24.67
2022-08-17T19:49:33.416Z,25.53
2022-08-17T19:54:59.961Z,23.97
2022-08-17T20:00:11.305Z,24.30
2022-08-17T20:05:40.633Z,24.67
2022-08-17T20:11:10.452Z,24.93
2022-08-17T20:16:12.446Z,25.53
2022-08-17T20:21:33.790Z,25.50
2022-08-17T20:27:36.719Z,27.27
2022-08-17T20:32:55.609Z,26.93
2022-08-17T20:38:13.487Z,27.20
2022-08-17T20:43:33.609Z,24.20
2022-08-17T20:48:39.852Z,27.70
2022-08-17T20:53:47.754Z,28.57
2022-08-17T20:58:49.479Z,28.03
2022-08-17T21:03:52.425Z,26.77
2022-08-17T21:09:12.724Z,26.53
2022-08-17T21:14:17.519Z,27.13
2022-08-17T21:20:07.780Z,29.67
2022-08-17T21:25:22.493Z,29.30
2022-08-17T21:30:47.523Z,30.17
2022-08-17T21:35:58.654Z,27.73
2022-08-17T21:41:01.311Z,26.00
2022-08-17T21:46:10.489Z,28.13
2022-08-17T21:51:20.254Z,30.93
2022-08-17T21:56:34.587Z,30.60
2022-08-17T22:01:43.086Z,28.37
2022-08-17T22:06:52.491Z,29.73
2022-08-17T22:12:19.035Z,29.77
2022-08-17T22:17:27.770Z,30.40
2022-08-17T22:22:56.647Z,31.03
2022-08-17T22:28:01.334Z,32.23
2022-08-17T22:33:31.509Z,31.93
2022-08-17T22:38:33.361Z,30.03
2022-08-17T22:43:38.318Z,31.20
2022-08-17T22:48:51.296Z,31.57
2022-08-17T22:54:14.785Z,32.33
2022-08-17T22:59:37.715Z,31.53
2022-08-17T23:04:43.490Z,33.57
2022-08-17T23:09:45.939Z,34.30
2022-08-17T23:15:05.111Z,34.20
2022-08-17T23:20:12.135Z,32.57
2022-08-17T23:25:49.322Z,33.70
2022-08-17T23:30:53.556Z,35.80
2022-08-17T23:35:55.972Z,34.67
2022-08-17T23:41:21.390Z,35.07
2022-08-17T23:46:35.431Z,35.37
2022-08-17T23:51:43.985Z,36.43
2022-08-17T23:56:46.833Z,36.17
